MMCP/CPE METAR and TAF weather

Enter ICAO airport designator
Station Type Date Time Source
MMCP METAR 2019/04/25 06:42 UTC NOAA

MMCP 250642Z 14010G20KT 6SM SKC 26/20 A2978


Station Type Date Time Source
MMCP Decoded METAR 2019/04/25 06:42 UTC NOAA

Campeche, Camp., Mexico (MMCP) 19-51N 090-33W
Apr 25, 2019 - 02:42 AM EDT / 2019.04.25 0642 UTC
Wind: from the SE (140 degrees) at 12 MPH (10 KT) gusting to 23 MPH (20 KT):0
Visibility: 6 mile(s):0
Sky conditions: clear
Temperature: 78 F (26 C)
Dew Point: 68 F (20 C)
Relative Humidity: 69%
Pressure (altimeter): 29.78 in. Hg (1008 hPa)
ob: MMCP 250642Z 14010G20KT 6SM SKC 26/20 A2978
cycle: 6

Station Type Date Time Source
MMCP TAF 2019/04/25 06:21 UTC NOAA

TAF MMCP 250520Z 2506/2606 12010KT P6SM SCT250
FM251700 13015KT P6SM SKC
FM260200 36010KT P6SM SCT020

Example: see airport list